createdAt,value
2019-03-22T00:00:38.965Z,3.91
2019-03-22T00:01:38.964Z,3.86
2019-03-22T00:02:38.974Z,3.88
2019-03-22T00:03:38.986Z,3.94
2019-03-22T00:04:38.995Z,3.91
2019-03-22T00:05:39.017Z,3.96
2019-03-22T00:06:39.018Z,4.02
2019-03-22T00:07:39.029Z,3.93
2019-03-22T00:08:39.035Z,3.90
2019-03-22T00:09:39.044Z,3.90
2019-03-22T00:10:39.053Z,3.94
2019-03-22T00:11:39.067Z,3.94
2019-03-22T00:12:39.072Z,3.98
2019-03-22T00:13:39.089Z,3.94
2019-03-22T00:14:39.094Z,3.96
2019-03-22T00:15:39.105Z,3.94
2019-03-22T00:16:39.114Z,3.91
2019-03-22T00:17:39.119Z,3.93
2019-03-22T00:18:39.129Z,3.86
2019-03-22T00:19:39.141Z,3.87
2019-03-22T00:20:39.148Z,3.90
2019-03-22T00:21:39.158Z,3.90
2019-03-22T00:22:39.170Z,3.98
2019-03-22T00:23:39.177Z,3.97
2019-03-22T00:24:39.187Z,3.97
2019-03-22T00:25:39.199Z,3.98
2019-03-22T00:26:39.205Z,4.02
2019-03-22T00:27:39.214Z,4.00
2019-03-22T00:28:39.234Z,3.97
2019-03-22T00:29:39.238Z,3.93
2019-03-22T00:30:39.245Z,3.96
2019-03-22T00:31:39.256Z,4.05
2019-03-22T00:32:39.266Z,3.88
2019-03-22T00:33:39.278Z,3.88
2019-03-22T00:34:39.289Z,4.00
2019-03-22T00:35:39.292Z,4.00
2019-03-22T00:36:39.305Z,3.93
2019-03-22T00:37:39.310Z,4.02
2019-03-22T00:38:39.325Z,3.88
2019-03-22T00:39:39.332Z,3.90
2019-03-22T00:40:39.343Z,3.91
2019-03-22T00:41:39.351Z,3.83
2019-03-22T00:42:39.364Z,3.84
2019-03-22T00:43:39.372Z,3.87
2019-03-22T00:44:39.384Z,3.84
2019-03-22T00:45:39.394Z,3.80
2019-03-22T00:46:39.401Z,3.76
2019-03-22T00:47:39.457Z,3.68
2019-03-22T00:48:39.420Z,3.70
2019-03-22T00:49:39.426Z,3.66
2019-03-22T00:50:39.437Z,3.70
2019-03-22T00:51:39.450Z,3.68
2019-03-22T00:52:39.456Z,3.62
2019-03-22T00:53:39.469Z,3.58
2019-03-22T00:54:39.472Z,3.62
2019-03-22T00:55:39.485Z,3.65
2019-03-22T00:56:39.495Z,3.70
2019-03-22T00:57:39.506Z,3.68
2019-03-22T00:58:39.511Z,3.61
2019-03-22T00:59:39.518Z,3.70
2019-03-22T01:00:39.533Z,3.72
2019-03-22T01:01:39.542Z,3.68
2019-03-22T01:02:39.551Z,3.66
2019-03-22T01:03:39.564Z,3.66
2019-03-22T01:04:39.569Z,3.66
2019-03-22T01:05:39.580Z,3.68
2019-03-22T01:06:39.584Z,3.62
2019-03-22T01:07:39.598Z,3.66
2019-03-22T01:08:39.604Z,3.68
2019-03-22T01:09:39.610Z,3.65
2019-03-22T01:10:39.625Z,3.55
2019-03-22T01:11:39.636Z,3.61
2019-03-22T01:12:39.642Z,3.54
2019-03-22T01:13:39.648Z,3.58
2019-03-22T01:14:39.659Z,3.60
2019-03-22T01:15:39.669Z,3.52
2019-03-22T01:16:39.681Z,3.54
2019-03-22T01:17:39.687Z,3.58
2019-03-22T01:18:39.696Z,3.52
2019-03-22T01:19:39.709Z,3.45
2019-03-22T01:20:39.715Z,3.48
2019-03-22T01:21:39.737Z,3.48
2019-03-22T01:22:39.736Z,3.48
2019-03-22T01:23:39.745Z,3.39
2019-03-22T01:24:39.755Z,3.33
2019-03-22T01:25:39.760Z,3.33
2019-03-22T01:26:39.771Z,3.32
2019-03-22T01:27:41.303Z,3.47
2019-03-22T01:28:39.791Z,3.35
2019-03-22T01:29:39.797Z,3.29
2019-03-22T01:30:39.809Z,3.32
2019-03-22T01:31:39.819Z,3.45
2019-03-22T01:32:39.829Z,3.36
2019-03-22T01:33:39.838Z,3.40
2019-03-22T01:34:39.854Z,3.39
2019-03-22T01:35:39.852Z,3.31
2019-03-22T01:36:39.861Z,3.39
2019-03-22T01:37:39.876Z,3.35
2019-03-22T01:38:39.878Z,3.29
2019-03-22T01:39:39.890Z,3.33
2019-03-22T01:40:39.898Z,3.40
2019-03-22T01:41:39.915Z,3.39
2019-03-22T01:42:39.920Z,3.35
2019-03-22T01:43:39.922Z,3.35
2019-03-22T01:44:39.937Z,3.39
2019-03-22T01:45:39.945Z,3.33
2019-03-22T01:46:39.949Z,3.39
2019-03-22T01:47:39.959Z,3.39
2019-03-22T01:48:39.971Z,3.39
2019-03-22T01:49:39.981Z,3.35
2019-03-22T01:50:39.986Z,3.35
2019-03-22T01:51:39.996Z,3.33
2019-03-22T01:52:40.004Z,3.24
2019-03-22T01:53:40.015Z,3.28
2019-03-22T01:54:40.041Z,3.20
2019-03-22T01:55:40.030Z,3.36
2019-03-22T01:56:40.045Z,3.29
2019-03-22T01:57:51.938Z,3.20
2019-03-22T01:58:40.062Z,3.31
2019-03-22T01:59:40.070Z,3.24
2019-03-22T02:00:40.076Z,3.24
2019-03-22T02:01:40.140Z,3.20
2019-03-22T02:02:40.093Z,3.33
2019-03-22T02:03:40.107Z,3.24
2019-03-22T02:04:40.114Z,3.21
2019-03-22T02:05:40.123Z,3.15
2019-03-22T02:06:40.130Z,3.17
2019-03-22T02:07:40.141Z,3.18
2019-03-22T02:08:40.150Z,3.10
2019-03-22T02:09:40.157Z,3.13
2019-03-22T02:10:40.166Z,3.18
2019-03-22T02:11:40.182Z,3.17
2019-03-22T02:12:40.188Z,3.18
2019-03-22T02:13:40.196Z,3.21
2019-03-22T02:14:40.203Z,3.23
2019-03-22T02:15:40.209Z,3.17
2019-03-22T02:16:40.223Z,3.29
2019-03-22T02:17:40.227Z,3.31
2019-03-22T02:18:40.238Z,3.23
2019-03-22T02:19:40.244Z,3.26
2019-03-22T02:20:40.253Z,3.24
2019-03-22T02:21:40.266Z,3.24
2019-03-22T02:22:40.278Z,3.36
2019-03-22T02:23:40.283Z,3.33
2019-03-22T02:24:40.292Z,3.39
2019-03-22T02:25:40.300Z,3.39
2019-03-22T02:26:40.312Z,3.32
2019-03-22T02:27:40.318Z,3.36
2019-03-22T02:28:40.324Z,3.39
2019-03-22T02:29:40.337Z,3.35
2019-03-22T02:30:40.342Z,3.36
2019-03-22T02:31:40.356Z,3.32
2019-03-22T02:32:40.384Z,3.39
2019-03-22T02:33:40.373Z,3.32
2019-03-22T02:34:40.385Z,3.36
2019-03-22T02:35:40.390Z,3.24
2019-03-22T02:36:40.405Z,3.24
2019-03-22T02:37:40.405Z,3.33
2019-03-22T02:38:40.421Z,3.40
2019-03-22T02:39:40.572Z,3.32
2019-03-22T02:40:40.435Z,3.45
2019-03-22T02:41:40.442Z,3.42
2019-03-22T02:42:40.449Z,3.33
2019-03-22T02:43:40.470Z,3.35
2019-03-22T02:44:40.467Z,3.35
2019-03-22T02:45:40.525Z,3.35
2019-03-22T02:46:40.485Z,3.39
2019-03-22T02:47:40.506Z,3.43
2019-03-22T02:48:40.505Z,3.54
2019-03-22T02:49:40.516Z,3.58
2019-03-22T02:50:40.538Z,3.60
2019-03-22T02:51:40.529Z,3.54
2019-03-22T02:52:40.539Z,3.50
2019-03-22T02:53:40.547Z,3.45
2019-03-22T02:54:40.560Z,3.47
2019-03-22T02:55:40.726Z,3.42
2019-03-22T02:56:40.574Z,3.39
2019-03-22T02:57:40.614Z,3.40
2019-03-22T02:58:40.599Z,3.36
2019-03-22T02:59:40.598Z,3.24
2019-03-22T03:00:40.621Z,3.33
2019-03-22T03:01:40.615Z,3.21
2019-03-22T03:02:40.630Z,3.21
2019-03-22T03:03:40.634Z,3.21
2019-03-22T03:04:40.645Z,3.24
2019-03-22T03:05:40.663Z,3.24
2019-03-22T03:06:40.673Z,3.15
2019-03-22T03:07:40.677Z,3.21
2019-03-22T03:08:40.683Z,3.23
2019-03-22T03:09:40.690Z,3.18
2019-03-22T03:10:40.697Z,3.28
2019-03-22T03:11:40.704Z,3.21
2019-03-22T03:12:40.714Z,3.15
2019-03-22T03:13:40.721Z,3.21
2019-03-22T03:14:40.738Z,3.21
2019-03-22T03:15:40.744Z,3.18
2019-03-22T03:16:40.753Z,3.21
2019-03-22T03:17:40.761Z,3.21
2019-03-22T03:18:40.766Z,3.11
2019-03-22T03:19:40.777Z,3.17
2019-03-22T03:20:40.795Z,3.15
2019-03-22T03:21:40.796Z,3.13
2019-03-22T03:22:40.804Z,3.10
2019-03-22T03:23:40.813Z,3.13
2019-03-22T03:24:40.827Z,3.06
2019-03-22T03:25:40.827Z,3.13
2019-03-22T03:26:40.837Z,3.15
2019-03-22T03:27:40.846Z,3.00
2019-03-22T03:28:40.861Z,3.05
2019-03-22T03:29:40.870Z,3.13
2019-03-22T03:30:40.894Z,3.23
2019-03-22T03:31:40.884Z,3.17
2019-03-22T03:32:40.891Z,3.17
2019-03-22T03:33:40.904Z,3.06
2019-03-22T03:34:40.913Z,3.08
2019-03-22T03:35:40.923Z,3.08
2019-03-22T03:36:40.943Z,3.14
2019-03-22T03:37:40.938Z,3.13
2019-03-22T03:38:40.965Z,3.14
2019-03-22T03:39:41.031Z,3.10
2019-03-22T03:40:40.962Z,3.10
2019-03-22T03:41:40.979Z,3.13
2019-03-22T03:42:40.984Z,3.15
2019-03-22T03:43:40.992Z,3.17
2019-03-22T03:44:41.000Z,3.20
2019-03-22T03:45:41.009Z,3.18
2019-03-22T03:46:41.022Z,3.20
2019-03-22T03:47:41.026Z,3.32
2019-03-22T03:48:41.032Z,3.21
2019-03-22T03:49:41.040Z,3.32
2019-03-22T03:50:41.112Z,3.29
2019-03-22T03:51:41.058Z,3.20
2019-03-22T03:52:41.073Z,3.23
2019-03-22T03:53:41.076Z,3.21
2019-03-22T03:54:41.090Z,3.39
2019-03-22T03:55:41.103Z,3.35
2019-03-22T03:56:41.101Z,3.40
2019-03-22T03:57:41.111Z,3.36
2019-03-22T03:58:52.089Z,3.43
2019-03-22T03:59:41.132Z,3.35
2019-03-22T04:00:41.139Z,3.47
2019-03-22T04:01:41.143Z,3.35
2019-03-22T04:02:41.157Z,3.45
2019-03-22T04:03:41.168Z,3.32
2019-03-22T04:04:41.173Z,3.35
2019-03-22T04:05:41.179Z,3.36
2019-03-22T04:06:41.193Z,3.35
2019-03-22T04:07:41.201Z,3.35
2019-03-22T04:08:41.213Z,3.42
2019-03-22T04:09:41.229Z,3.40
2019-03-22T04:10:41.225Z,3.39
2019-03-22T04:11:41.234Z,3.39
2019-03-22T04:12:41.243Z,3.40
2019-03-22T04:13:41.253Z,3.36
2019-03-22T04:14:41.258Z,3.35
2019-03-22T04:15:41.270Z,3.36
2019-03-22T04:16:41.276Z,3.42
2019-03-22T04:17:41.285Z,3.35
2019-03-22T04:18:41.294Z,3.39
2019-03-22T04:19:41.310Z,3.35
2019-03-22T04:20:41.315Z,3.17
2019-03-22T04:21:41.319Z,3.33
2019-03-22T04:22:41.334Z,3.18
2019-03-22T04:23:41.339Z,3.18
2019-03-22T04:24:41.348Z,3.13
2019-03-22T04:25:41.359Z,3.15
2019-03-22T04:26:41.365Z,3.05
2019-03-22T04:27:41.382Z,3.06
2019-03-22T04:28:41.472Z,3.10
2019-03-22T04:29:41.401Z,3.11
2019-03-22T04:30:41.408Z,3.05
2019-03-22T04:31:41.411Z,3.03
2019-03-22T04:32:41.426Z,3.06
2019-03-22T04:33:41.491Z,3.06
2019-03-22T04:34:41.438Z,2.99
2019-03-22T04:35:41.455Z,2.99
2019-03-22T04:36:41.454Z,2.96
2019-03-22T04:37:41.465Z,2.90
2019-03-22T04:38:41.481Z,2.89
2019-03-22T04:39:41.481Z,2.92
2019-03-22T04:40:41.493Z,2.90
2019-03-22T04:41:41.495Z,2.95
2019-03-22T04:42:41.504Z,2.90
2019-03-22T04:43:41.512Z,2.90
2019-03-22T04:44:41.522Z,2.89
2019-03-22T04:45:41.533Z,2.99
2019-03-22T04:46:41.550Z,2.90
2019-03-22T04:47:41.550Z,2.92
2019-03-22T04:48:41.555Z,2.93
2019-03-22T04:49:41.569Z,2.89
2019-03-22T04:50:41.573Z,2.90
2019-03-22T04:51:41.583Z,2.90
2019-03-22T04:52:41.589Z,3.05
2019-03-22T04:53:41.613Z,3.10
2019-03-22T04:54:41.610Z,3.10
2019-03-22T04:55:41.620Z,3.08
2019-03-22T04:56:41.628Z,3.10
2019-03-22T04:57:41.630Z,3.03
2019-03-22T04:58:41.637Z,2.99
2019-03-22T04:59:41.652Z,3.08
2019-03-22T05:00:41.656Z,3.11
2019-03-22T05:01:41.668Z,3.02
2019-03-22T05:02:41.677Z,2.99
2019-03-22T05:03:41.685Z,3.05
2019-03-22T05:04:41.694Z,3.00
2019-03-22T05:05:41.704Z,3.03
2019-03-22T05:06:41.744Z,3.02
2019-03-22T05:07:41.714Z,2.97
2019-03-22T05:08:41.727Z,2.97
2019-03-22T05:09:41.731Z,3.03
2019-03-22T05:10:41.741Z,3.06
2019-03-22T05:11:41.752Z,3.00
2019-03-22T05:12:41.756Z,2.96
2019-03-22T05:13:41.765Z,2.93
2019-03-22T05:14:41.776Z,2.87
2019-03-22T05:15:41.786Z,2.95
2019-03-22T05:16:41.795Z,2.95
2019-03-22T05:17:41.803Z,2.92
2019-03-22T05:18:43.893Z,2.92
2019-03-22T05:19:41.814Z,2.99
2019-03-22T05:20:41.829Z,3.02
2019-03-22T05:21:41.830Z,2.97
2019-03-22T05:22:41.842Z,2.96
2019-03-22T05:23:41.847Z,3.11
2019-03-22T05:24:41.861Z,3.05
2019-03-22T05:25:41.870Z,3.06
2019-03-22T05:26:41.879Z,3.05
2019-03-22T05:27:41.880Z,3.05
2019-03-22T05:28:41.890Z,3.03
2019-03-22T05:29:41.901Z,3.13
2019-03-22T05:30:41.913Z,3.11
2019-03-22T05:31:41.919Z,3.21
2019-03-22T05:32:41.929Z,3.20
2019-03-22T05:33:41.937Z,3.26
2019-03-22T05:34:41.942Z,3.21
2019-03-22T05:35:41.948Z,3.31
2019-03-22T05:36:41.956Z,3.21
2019-03-22T05:37:41.964Z,3.21
2019-03-22T05:38:41.977Z,3.20
2019-03-22T05:39:41.985Z,3.18
2019-03-22T05:40:41.997Z,3.31
2019-03-22T05:41:42.000Z,3.24
2019-03-22T05:42:42.013Z,3.21
2019-03-22T05:43:42.020Z,3.18
2019-03-22T05:44:42.027Z,3.24
2019-03-22T05:45:42.035Z,3.15
2019-03-22T05:46:42.039Z,3.18
2019-03-22T05:47:42.048Z,3.15
2019-03-22T05:48:42.059Z,3.20
2019-03-22T05:49:42.065Z,3.08
2019-03-22T05:50:42.075Z,3.06
2019-03-22T05:51:42.085Z,3.08
2019-03-22T05:52:42.096Z,3.08
2019-03-22T05:53:42.105Z,3.14
2019-03-22T05:54:42.110Z,3.10
2019-03-22T05:55:42.117Z,3.08
2019-03-22T05:56:42.128Z,3.05
2019-03-22T05:57:42.134Z,3.05
2019-03-22T05:58:42.145Z,3.06
2019-03-22T05:59:43.120Z,3.00
2019-03-22T06:00:42.163Z,3.03
2019-03-22T06:01:42.172Z,3.08
2019-03-22T06:02:42.177Z,3.10
2019-03-22T06:03:42.186Z,3.15
2019-03-22T06:04:42.193Z,3.24
2019-03-22T06:05:42.206Z,3.23
2019-03-22T06:06:42.211Z,3.33
2019-03-22T06:07:42.225Z,3.32
2019-03-22T06:08:42.230Z,3.32
2019-03-22T06:09:42.241Z,3.35
2019-03-22T06:10:42.250Z,3.45
2019-03-22T06:11:42.256Z,3.36
2019-03-22T06:12:42.265Z,3.40
2019-03-22T06:13:44.343Z,3.48
2019-03-22T06:14:42.286Z,3.48
2019-03-22T06:15:42.292Z,3.43
2019-03-22T06:16:42.301Z,3.40
2019-03-22T06:17:51.247Z,3.32
2019-03-22T06:18:42.318Z,3.35
2019-03-22T06:19:42.327Z,3.20
2019-03-22T06:20:42.341Z,3.29
2019-03-22T06:21:42.347Z,3.28
2019-03-22T06:22:42.353Z,3.15
2019-03-22T06:23:42.361Z,3.17
2019-03-22T06:24:42.375Z,3.21
2019-03-22T06:25:42.376Z,3.23
2019-03-22T06:26:42.384Z,3.17
2019-03-22T06:27:42.395Z,3.10
2019-03-22T06:28:42.409Z,3.13
2019-03-22T06:29:53.360Z,3.05
2019-03-22T06:30:42.421Z,3.18
2019-03-22T06:31:42.430Z,3.20
2019-03-22T06:32:42.443Z,3.20
2019-03-22T06:33:42.444Z,3.23
2019-03-22T06:34:42.461Z,3.28
2019-03-22T06:35:42.462Z,3.21
2019-03-22T06:36:42.546Z,3.23
2019-03-22T06:37:42.480Z,3.24
2019-03-22T06:38:42.486Z,3.24
2019-03-22T06:39:42.496Z,3.21
2019-03-22T06:40:42.507Z,3.33
2019-03-22T06:41:42.514Z,3.29
2019-03-22T06:42:42.524Z,3.26
2019-03-22T06:43:42.533Z,3.26
2019-03-22T06:44:42.543Z,3.28
2019-03-22T06:45:42.547Z,3.24
2019-03-22T06:46:42.553Z,3.23
2019-03-22T06:47:42.567Z,3.14
2019-03-22T06:48:42.577Z,3.23
2019-03-22T06:49:42.585Z,3.28
2019-03-22T06:50:42.593Z,3.24
2019-03-22T06:51:42.601Z,3.26
2019-03-22T06:52:42.610Z,3.36
2019-03-22T06:53:42.618Z,3.39
2019-03-22T06:54:42.624Z,3.36
2019-03-22T06:55:42.631Z,3.39
2019-03-22T06:56:42.645Z,3.39
2019-03-22T06:57:42.651Z,3.39
2019-03-22T06:58:42.665Z,3.32
2019-03-22T06:59:42.671Z,3.43
2019-03-22T07:00:42.677Z,3.33
2019-03-22T07:01:42.681Z,3.42
2019-03-22T07:02:42.691Z,3.52
2019-03-22T07:03:42.699Z,3.65
2019-03-22T07:04:42.719Z,3.65
2019-03-22T07:05:42.720Z,3.73
2019-03-22T07:06:42.726Z,3.86
2019-03-22T07:07:42.738Z,3.97
2019-03-22T07:08:42.743Z,4.06
2019-03-22T07:09:42.757Z,4.23
2019-03-22T07:10:42.766Z,4.37
2019-03-22T07:11:42.830Z,4.50
2019-03-22T07:12:42.779Z,4.44
2019-03-22T07:13:42.788Z,4.67
2019-03-22T07:14:42.799Z,4.67
2019-03-22T07:15:42.807Z,5.02
2019-03-22T07:16:42.822Z,5.12
2019-03-22T07:17:42.825Z,5.25
2019-03-22T07:18:42.834Z,5.30
2019-03-22T07:19:42.842Z,5.43
2019-03-22T07:20:42.850Z,5.46
2019-03-22T07:21:42.859Z,5.48
2019-03-22T07:22:42.880Z,5.60
2019-03-22T07:23:42.885Z,5.75
2019-03-22T07:24:42.889Z,5.85
2019-03-22T07:25:42.898Z,6.03
2019-03-22T07:26:42.905Z,6.06
2019-03-22T07:27:42.921Z,6.11
2019-03-22T07:28:42.927Z,6.18
2019-03-22T07:29:42.936Z,6.12
2019-03-22T07:30:42.945Z,6.06
2019-03-22T07:31:42.954Z,6.01
2019-03-22T07:32:42.970Z,6.12
2019-03-22T07:33:42.973Z,6.06
2019-03-22T07:34:42.980Z,6.08
2019-03-22T07:35:42.992Z,6.31
2019-03-22T07:36:43.004Z,6.22
2019-03-22T07:37:43.005Z,6.27
2019-03-22T07:38:43.020Z,6.34
2019-03-22T07:39:43.031Z,6.43
2019-03-22T07:40:43.038Z,6.43
2019-03-22T07:41:43.060Z,6.49
2019-03-22T07:42:43.063Z,6.56
2019-03-22T07:43:43.063Z,6.69
2019-03-22T07:44:43.079Z,6.69
2019-03-22T07:45:43.087Z,6.84
2019-03-22T07:46:43.093Z,6.94
2019-03-22T07:47:43.105Z,7.06
2019-03-22T07:48:43.117Z,6.89
2019-03-22T07:49:43.121Z,6.84
2019-03-22T07:50:43.135Z,6.79
2019-03-22T07:51:43.141Z,6.81
2019-03-22T07:52:43.154Z,6.85
2019-03-22T07:53:43.158Z,7.17
2019-03-22T07:54:43.181Z,6.80
2019-03-22T07:55:43.180Z,6.76
2019-03-22T07:56:43.194Z,6.64
2019-03-22T07:57:43.200Z,6.71
2019-03-22T07:58:43.212Z,6.64
2019-03-22T07:59:43.225Z,6.66
2019-03-22T08:00:43.230Z,6.70
2019-03-22T08:01:43.241Z,6.77
2019-03-22T08:02:43.248Z,6.99
2019-03-22T08:03:43.259Z,7.24
2019-03-22T08:04:43.269Z,7.34
2019-03-22T08:05:50.992Z,7.31
2019-03-22T08:06:43.293Z,7.52
2019-03-22T08:07:43.300Z,7.49
2019-03-22T08:08:43.311Z,7.53
2019-03-22T08:09:43.360Z,7.58
2019-03-22T08:10:43.328Z,7.53
2019-03-22T08:11:43.337Z,7.60
2019-03-22T08:12:43.394Z,7.40
2019-03-22T08:13:43.372Z,7.46
2019-03-22T08:14:43.373Z,7.58
2019-03-22T08:15:43.382Z,7.63
2019-03-22T08:16:43.391Z,7.53
2019-03-22T08:17:43.398Z,7.53
2019-03-22T08:18:43.418Z,7.58
2019-03-22T08:19:43.421Z,7.98
2019-03-22T08:20:43.442Z,7.93
2019-03-22T08:21:43.444Z,8.02
2019-03-22T08:22:43.449Z,8.04
2019-03-22T08:23:43.462Z,8.07
2019-03-22T08:24:43.471Z,7.92
2019-03-22T08:25:43.697Z,7.63
2019-03-22T08:26:43.495Z,7.53
2019-03-22T08:27:43.505Z,7.57
2019-03-22T08:28:43.514Z,7.57
2019-03-22T08:29:43.564Z,7.63
2019-03-22T08:30:43.624Z,7.61
2019-03-22T08:31:43.558Z,7.74
2019-03-22T08:32:43.558Z,7.90
2019-03-22T08:33:43.591Z,8.01
2019-03-22T08:34:43.582Z,8.00
2019-03-22T08:35:43.601Z,7.85
2019-03-22T08:36:43.622Z,8.18
2019-03-22T08:37:52.452Z,7.82
2019-03-22T08:38:43.628Z,7.80
2019-03-22T08:39:43.629Z,7.68
2019-03-22T08:40:43.643Z,7.61
2019-03-22T08:41:43.662Z,7.74
2019-03-22T08:42:43.682Z,8.22
2019-03-22T08:43:43.674Z,8.23
2019-03-22T08:44:43.688Z,8.30
2019-03-22T08:45:43.743Z,8.23
2019-03-22T08:46:44.983Z,8.28
2019-03-22T08:47:43.715Z,7.95
2019-03-22T08:48:43.726Z,7.97
2019-03-22T08:49:43.995Z,8.08
2019-03-22T08:50:43.749Z,8.40
2019-03-22T08:51:43.761Z,8.59
2019-03-22T08:52:43.773Z,8.76
2019-03-22T08:53:54.740Z,8.59
2019-03-22T08:54:43.796Z,8.65
2019-03-22T08:55:43.802Z,8.43
2019-03-22T08:56:43.840Z,8.40
2019-03-22T08:57:43.829Z,8.44
2019-03-22T08:58:43.836Z,8.29
2019-03-22T08:59:43.916Z,8.50
2019-03-22T09:00:56.656Z,8.70
2019-03-22T09:01:43.962Z,8.55
2019-03-22T09:02:43.885Z,8.48
2019-03-22T09:03:43.895Z,8.74
2019-03-22T09:04:43.943Z,9.21
2019-03-22T09:05:43.913Z,9.66
2019-03-22T09:06:43.935Z,9.48
2019-03-22T09:07:43.991Z,9.20
2019-03-22T09:08:43.960Z,9.53
2019-03-22T09:09:43.964Z,9.65
2019-03-22T09:10:43.973Z,9.68
2019-03-22T09:11:43.983Z,9.64
2019-03-22T09:12:43.999Z,9.40
2019-03-22T09:13:44.048Z,9.35
2019-03-22T09:14:44.057Z,9.38
2019-03-22T09:15:44.036Z,9.38
2019-03-22T09:16:44.059Z,9.23
2019-03-22T09:17:44.056Z,9.24
2019-03-22T09:18:44.071Z,9.15
2019-03-22T09:19:44.112Z,9.35
2019-03-22T09:20:44.104Z,9.14
2019-03-22T09:21:44.121Z,8.65
2019-03-22T09:22:44.164Z,8.99
2019-03-22T09:23:44.136Z,8.98
2019-03-22T09:24:44.143Z,9.01
2019-03-22T09:25:44.153Z,8.76
2019-03-22T09:26:47.834Z,8.99
2019-03-22T09:27:44.176Z,9.17
2019-03-22T09:28:44.213Z,9.35
2019-03-22T09:29:47.201Z,9.40
2019-03-22T09:30:44.214Z,9.65
2019-03-22T09:31:44.270Z,9.79
2019-03-22T09:32:44.264Z,9.83
2019-03-22T09:33:44.246Z,9.89
2019-03-22T09:34:44.285Z,9.90
2019-03-22T09:35:44.312Z,9.57
2019-03-22T09:36:44.338Z,10.11
2019-03-22T09:37:44.299Z,10.22
2019-03-22T09:38:44.339Z,10.27
2019-03-22T09:39:44.351Z,10.18
2019-03-22T09:40:44.353Z,10.02
2019-03-22T09:41:44.380Z,10.07
2019-03-22T09:42:44.364Z,9.74
2019-03-22T09:43:44.381Z,9.65
2019-03-22T09:44:45.216Z,9.75
2019-03-22T09:45:44.417Z,10.18
2019-03-22T09:46:44.439Z,10.09
2019-03-22T09:47:44.437Z,10.17
2019-03-22T09:48:44.441Z,10.33
2019-03-22T09:49:44.450Z,10.52
2019-03-22T09:50:44.461Z,10.64
2019-03-22T09:51:44.487Z,10.60
2019-03-22T09:52:44.489Z,10.61
2019-03-22T09:53:44.512Z,10.63
2019-03-22T09:54:44.528Z,10.73
2019-03-22T09:55:44.547Z,10.45
2019-03-22T09:56:47.352Z,10.33
2019-03-22T09:57:44.602Z,10.40
2019-03-22T09:58:44.564Z,10.38
2019-03-22T09:59:44.579Z,10.51
2019-03-22T10:00:44.650Z,10.36
2019-03-22T10:01:44.604Z,10.23
2019-03-22T10:02:44.621Z,10.70
2019-03-22T10:03:44.695Z,11.42
2019-03-22T10:04:44.663Z,11.58
2019-03-22T10:05:44.656Z,11.09
2019-03-22T10:06:44.669Z,10.99
2019-03-22T10:07:44.687Z,10.94
2019-03-22T10:08:44.695Z,11.29
2019-03-22T10:09:44.710Z,11.49
2019-03-22T10:10:44.757Z,11.35
2019-03-22T10:11:44.733Z,11.25
2019-03-22T10:12:44.796Z,11.11
2019-03-22T10:13:44.760Z,11.37
2019-03-22T10:14:44.817Z,11.39
2019-03-22T10:15:44.794Z,11.64
2019-03-22T10:16:47.445Z,11.49
2019-03-22T10:17:44.817Z,11.15
2019-03-22T10:18:44.825Z,11.72
2019-03-22T10:19:44.845Z,11.76
2019-03-22T10:20:44.858Z,11.46
2019-03-22T10:21:44.880Z,11.39
2019-03-22T10:22:44.880Z,11.73
2019-03-22T10:23:44.901Z,11.85
2019-03-22T10:24:44.915Z,11.58
2019-03-22T10:25:44.926Z,11.75
2019-03-22T10:26:44.938Z,11.67
2019-03-22T10:27:44.955Z,11.57
2019-03-22T10:28:44.966Z,11.00
2019-03-22T10:29:44.984Z,11.19
2019-03-22T10:30:44.995Z,11.60
2019-03-22T10:31:45.153Z,11.33
2019-03-22T10:32:45.024Z,11.00
2019-03-22T10:33:45.034Z,11.11
2019-03-22T10:34:45.090Z,11.19
2019-03-22T10:35:45.064Z,11.82
2019-03-22T10:36:45.076Z,12.62
2019-03-22T10:37:45.091Z,12.09
2019-03-22T10:38:45.111Z,11.76
2019-03-22T10:39:45.118Z,11.62
2019-03-22T10:40:45.136Z,11.36
2019-03-22T10:41:45.185Z,11.83
2019-03-22T10:42:45.191Z,12.34
2019-03-22T10:43:45.208Z,12.09
2019-03-22T10:44:45.189Z,12.19
2019-03-22T10:45:45.227Z,11.29
2019-03-22T10:46:45.221Z,10.92
2019-03-22T10:47:45.282Z,11.44
2019-03-22T10:48:45.245Z,12.02
2019-03-22T10:49:45.275Z,12.20
2019-03-22T10:50:45.277Z,11.86
2019-03-22T10:51:56.175Z,12.09
2019-03-22T10:52:48.134Z,12.38
2019-03-22T10:53:45.334Z,12.78
2019-03-22T10:54:45.398Z,12.82
2019-03-22T10:55:45.418Z,13.23
2019-03-22T10:56:45.363Z,13.41
2019-03-22T10:57:45.376Z,13.49
2019-03-22T10:58:45.393Z,13.49
2019-03-22T10:59:45.405Z,13.49
2019-03-22T11:00:45.415Z,13.30
2019-03-22T11:01:52.250Z,13.70
2019-03-22T11:02:45.452Z,13.95
2019-03-22T11:03:45.546Z,14.02
2019-03-22T11:04:45.518Z,13.96
2019-03-22T11:05:45.495Z,14.02
2019-03-22T11:06:45.510Z,14.03
2019-03-22T11:07:45.524Z,14.17
2019-03-22T11:08:45.539Z,14.35
2019-03-22T11:09:45.551Z,14.32
2019-03-22T11:10:45.571Z,14.21
2019-03-22T11:11:45.588Z,14.03
2019-03-22T11:12:45.595Z,14.28
2019-03-22T11:13:45.616Z,14.28
2019-03-22T11:14:45.822Z,14.28
2019-03-22T11:15:48.741Z,14.45
2019-03-22T11:16:45.661Z,14.51
2019-03-22T11:17:45.682Z,14.29
2019-03-22T11:18:45.690Z,14.14
2019-03-22T11:19:45.711Z,14.07
2019-03-22T11:20:45.921Z,13.57
2019-03-22T11:21:45.739Z,13.11
2019-03-22T11:22:45.756Z,13.12
2019-03-22T11:23:45.775Z,13.20
2019-03-22T11:24:45.786Z,13.36
2019-03-22T11:25:45.802Z,13.67
2019-03-22T11:26:45.824Z,13.97
2019-03-22T11:27:45.835Z,13.14
2019-03-22T11:28:45.856Z,13.52
2019-03-22T11:29:45.869Z,13.57
2019-03-22T11:30:45.882Z,13.48
2019-03-22T11:31:45.906Z,13.15
2019-03-22T11:32:45.918Z,13.12
2019-03-22T11:33:45.931Z,13.12
2019-03-22T11:34:45.945Z,12.82
2019-03-22T11:35:45.962Z,13.03
2019-03-22T11:36:45.983Z,13.28
2019-03-22T11:37:45.993Z,13.64
2019-03-22T11:38:46.016Z,13.78
2019-03-22T11:39:46.026Z,13.66
2019-03-22T11:40:46.943Z,13.85
2019-03-22T11:41:46.059Z,13.71
2019-03-22T11:42:46.072Z,13.42
2019-03-22T11:43:46.091Z,13.69
2019-03-22T11:44:46.105Z,13.85
2019-03-22T11:45:46.121Z,13.87
2019-03-22T11:46:46.153Z,14.18
2019-03-22T11:47:46.158Z,13.89
2019-03-22T11:48:46.174Z,13.32
2019-03-22T11:49:46.185Z,12.39
2019-03-22T11:50:46.204Z,12.56
2019-03-22T11:51:46.219Z,13.30
2019-03-22T11:52:46.238Z,13.45
2019-03-22T11:53:46.249Z,12.57
2019-03-22T11:54:46.266Z,11.95
2019-03-22T11:55:46.285Z,12.45
2019-03-22T11:56:46.298Z,12.85
2019-03-22T11:57:47.926Z,12.70
2019-03-22T11:58:46.329Z,12.67
2019-03-22T11:59:46.348Z,12.87
2019-03-22T12:00:46.367Z,13.26
2019-03-22T12:01:46.378Z,13.32
2019-03-22T12:02:46.395Z,13.51
2019-03-22T12:03:46.409Z,13.28
2019-03-22T12:04:46.430Z,13.08
2019-03-22T12:05:46.445Z,13.39
2019-03-22T12:06:46.463Z,13.45
2019-03-22T12:07:46.476Z,13.41
2019-03-22T12:08:46.490Z,13.32
2019-03-22T12:09:46.507Z,13.41
2019-03-22T12:10:46.551Z,13.97
2019-03-22T12:11:46.541Z,14.18
2019-03-22T12:12:46.554Z,13.99
2019-03-22T12:13:46.569Z,14.46
2019-03-22T12:14:46.591Z,14.60
2019-03-22T12:15:46.606Z,14.95
2019-03-22T12:16:46.624Z,15.20
2019-03-22T12:17:46.636Z,14.88
2019-03-22T12:18:46.651Z,14.75
2019-03-22T12:19:46.673Z,13.97
2019-03-22T12:20:46.689Z,13.60
2019-03-22T12:21:46.702Z,12.87
2019-03-22T12:22:46.719Z,13.14
2019-03-22T12:23:46.742Z,13.12
2019-03-22T12:24:46.758Z,13.29
2019-03-22T12:25:46.771Z,13.26
2019-03-22T12:26:46.784Z,13.11
2019-03-22T12:27:48.393Z,13.67
2019-03-22T12:28:46.815Z,14.29
2019-03-22T12:29:46.830Z,14.65
2019-03-22T12:30:46.853Z,14.33
2019-03-22T12:31:46.864Z,14.35
2019-03-22T12:32:46.886Z,14.52
2019-03-22T12:33:46.896Z,14.95
2019-03-22T12:34:46.913Z,15.16
2019-03-22T12:35:46.931Z,14.06
2019-03-22T12:36:46.947Z,12.75
2019-03-22T12:37:46.966Z,13.33
2019-03-22T12:38:46.986Z,13.71
2019-03-22T12:39:47.001Z,13.69
2019-03-22T12:40:47.015Z,13.45
2019-03-22T12:41:47.030Z,13.62
2019-03-22T12:42:47.049Z,14.35
2019-03-22T12:43:47.067Z,14.36
2019-03-22T12:44:47.079Z,14.89
2019-03-22T12:45:47.096Z,15.09
2019-03-22T12:46:49.157Z,15.17
2019-03-22T12:47:47.128Z,14.68
2019-03-22T12:48:47.144Z,14.25
2019-03-22T12:49:47.161Z,13.29
2019-03-22T12:50:47.182Z,13.29
2019-03-22T12:51:47.196Z,13.38
2019-03-22T12:52:47.212Z,13.46
2019-03-22T12:53:47.228Z,13.59
2019-03-22T12:54:47.247Z,13.03
2019-03-22T12:55:48.752Z,13.48
2019-03-22T12:56:47.284Z,13.26
2019-03-22T12:57:47.297Z,13.44
2019-03-22T12:58:47.319Z,13.70
2019-03-22T12:59:47.330Z,13.46
2019-03-22T13:00:47.356Z,14.25
2019-03-22T13:01:47.367Z,14.03
2019-03-22T13:02:47.382Z,14.18
2019-03-22T13:03:47.397Z,14.62
2019-03-22T13:04:47.431Z,15.16
2019-03-22T13:05:47.431Z,15.71
2019-03-22T13:06:47.453Z,14.94
2019-03-22T13:07:47.470Z,13.70
2019-03-22T13:08:47.486Z,14.33
2019-03-22T13:09:47.500Z,14.42
2019-03-22T13:10:47.517Z,14.65
2019-03-22T13:11:47.535Z,14.75